»·PEaware :: N6157J KSMO-KSMX

N6157J :: KSMO-KSMX

FLIGHT INFORMATION

Flight Status: Arrived
Operator: Privately registered:
United States
More flights under this callsign
Pilot: Andrew F. (4171)
Aircraft: PIPER PA-28 CHEROKEE ARCHER
(P28A)
More flights by this aircraft type
Origin: KSMO Santa Monica Mun
United States
Destination: KSMX Santa Maria Pub/Capt Hancock
United States
More flights between these airports :: More routes between these airports
Route: +SADDE V299 VTU V25 RZS
File this flight plan on PilotEdge
Remarks:
Altitude:
(Current/Filed)
8,000ft
Speed:
(Current/Filed)
100kts
Departed: 20-Sep-17 09:00 AM
Arrived: 20-Sep-17 10:12 AM
Distance/Time
Traveled:
112nm/1:12
Distance/Time
To Go:
Arrived

Flight Plot

Page will automatically refresh every two minutes.


Map Options




Map Legend


Flown Route
Filed Route
Departure Airport
Arrival Airport
Navaid (VOR, NDB)
Fix

Horizontal Profiles

Position Reports

Time Latitude Longitude Heading Altitude Ground
Speed
20-Sep-17 08:39 34.018357 -118.446179 134 178ft 0kts
20-Sep-17 08:40 34.018357 -118.446179 134 178ft 0kts
20-Sep-17 08:41 34.018354 -118.446176 134 178ft 0kts
20-Sep-17 08:42 34.018351 -118.446172 134 178ft 0kts
20-Sep-17 08:43 34.018348 -118.446168 134 178ft 0kts
20-Sep-17 08:44 34.018344 -118.446164 134 178ft 0kts
20-Sep-17 08:45 34.018341 -118.446160 134 178ft 0kts
20-Sep-17 08:46 34.018338 -118.446157 134 178ft 0kts
20-Sep-17 08:47 34.018335 -118.446153 134 178ft 0kts
20-Sep-17 08:48 34.018332 -118.446149 134 178ft 0kts
20-Sep-17 08:49 34.018330 -118.446146 134 178ft 0kts
20-Sep-17 08:50 34.018327 -118.446142 134 178ft 0kts
20-Sep-17 08:51 34.018324 -118.446139 134 178ft 0kts
20-Sep-17 08:52 34.018321 -118.446135 134 178ft 0kts
20-Sep-17 08:53 34.018318 -118.446132 134 178ft 0kts
20-Sep-17 08:54 34.018315 -118.446128 134 178ft 0kts
20-Sep-17 08:55 34.018312 -118.446124 134 178ft 0kts
20-Sep-17 08:56 34.018309 -118.446121 134 178ft 0kts
20-Sep-17 08:57 34.017965 -118.446461 293 178ft 1kts
20-Sep-17 08:58 34.017968 -118.446469 294 178ft 0kts
20-Sep-17 08:59 34.017969 -118.446471 294 178ft 0kts
20-Sep-17 09:00 34.019254 -118.445865 46 178ft 11kts
20-Sep-17 09:01 34.019896 -118.445621 346 178ft 0kts
20-Sep-17 09:02 34.019900 -118.445622 346 178ft 0kts
20-Sep-17 09:03 34.019905 -118.445623 346 178ft 0kts
20-Sep-17 09:04 34.018249 -118.448417 223 178ft 68kts
20-Sep-17 09:05 34.002091 -118.468422 225 1169ft 84kts
20-Sep-17 09:06 33.986784 -118.489018 237 2458ft 83kts
20-Sep-17 09:07 33.982426 -118.519877 259 3598ft 92kts
20-Sep-17 09:08 33.976994 -118.549371 260 4531ft 89kts
20-Sep-17 09:09 33.972437 -118.579229 278 5323ft 92kts
20-Sep-17 09:10 33.984200 -118.604575 307 6117ft 85kts
20-Sep-17 09:11 33.995706 -118.629716 296 6806ft 86kts
20-Sep-17 09:12 34.005894 -118.656207 296 7408ft 87kts
20-Sep-17 09:13 34.014462 -118.683843 293 7950ft 88kts
20-Sep-17 09:14 34.023718 -118.715866 292 8004ft 100kts
20-Sep-17 09:15 34.032286 -118.747994 292 7956ft 100kts
20-Sep-17 09:16 34.042023 -118.779887 293 8112ft 103kts
20-Sep-17 09:17 34.051624 -118.812945 291 8036ft 104kts
20-Sep-17 09:18 34.060503 -118.846486 291 8031ft 110kts
20-Sep-17 09:19 34.070022 -118.881977 291 8023ft 104kts
20-Sep-17 09:20 34.078650 -118.915072 291 8017ft 107kts
20-Sep-17 09:21 34.088123 -118.949342 292 8014ft 103kts
20-Sep-17 09:22 34.096902 -118.981627 292 7994ft 100kts
20-Sep-17 09:23 34.105607 -119.013193 292 7993ft 99kts
20-Sep-17 09:24 34.114144 -119.044920 291 7992ft 99kts
20-Sep-17 09:25 34.126961 -119.074297 304 8004ft 103kts
20-Sep-17 09:26 34.142990 -119.103098 307 8005ft 100kts
20-Sep-17 09:27 34.158978 -119.130469 307 7995ft 98kts
20-Sep-17 09:28 34.174877 -119.158439 304 8021ft 109kts
20-Sep-17 09:29 34.191244 -119.189714 305 8009ft 104kts
20-Sep-17 09:30 34.206674 -119.218328 304 7988ft 99kts
20-Sep-17 09:31 34.221555 -119.246137 305 7993ft 98kts
20-Sep-17 09:32 34.236710 -119.273558 305 7993ft 98kts
20-Sep-17 09:33 34.251648 -119.301330 305 7995ft 98kts
20-Sep-17 09:34 34.266508 -119.329071 305 7995ft 98kts
20-Sep-17 09:35 34.281454 -119.356889 306 7995ft 98kts
20-Sep-17 09:36 34.296654 -119.384318 306 7996ft 98kts
20-Sep-17 09:37 34.311819 -119.411847 306 7996ft 98kts
20-Sep-17 09:38 34.326953 -119.439516 306 7997ft 98kts
20-Sep-17 09:39 34.342027 -119.467116 306 7997ft 98kts
20-Sep-17 09:40 34.357042 -119.494807 305 7996ft 98kts
20-Sep-17 09:41 34.372184 -119.522559 306 7995ft 98kts
20-Sep-17 09:42 34.387551 -119.549975 306 7994ft 98kts
20-Sep-17 09:43 34.402862 -119.577413 306 7992ft 98kts
20-Sep-17 09:44 34.418150 -119.605020 306 7991ft 98kts
20-Sep-17 09:45 34.433372 -119.632637 306 7990ft 98kts
20-Sep-17 09:46 34.448598 -119.660480 306 7992ft 98kts
20-Sep-17 09:47 34.463613 -119.688200 306 7992ft 98kts
20-Sep-17 09:48 34.478462 -119.715941 307 7991ft 98kts
20-Sep-17 09:49 34.493864 -119.744003 306 8004ft 103kts
20-Sep-17 09:50 34.511200 -119.772091 309 8005ft 101kts
20-Sep-17 09:51 34.526248 -119.800454 303 7993ft 99kts
20-Sep-17 09:52 34.539902 -119.830980 303 7739ft 105kts
20-Sep-17 09:53 34.554459 -119.862144 300 7237ft 106kts
20-Sep-17 09:54 34.565745 -119.888768 303 6803ft 106kts
20-Sep-17 09:55 34.581925 -119.925265 304 6321ft 104kts
20-Sep-17 09:56 34.594302 -119.950294 304 6045ft 102kts
20-Sep-17 09:57 34.610788 -119.984618 303 6050ft 101kts
20-Sep-17 09:58 34.621434 -120.009655 304 6104ft 92kts
20-Sep-17 09:59 34.635317 -120.036107 316 6066ft 91kts
20-Sep-17 10:00 34.653354 -120.066376 310 5858ft 99kts
20-Sep-17 10:01 34.666098 -120.090040 311 5643ft 100kts
20-Sep-17 10:02 34.679919 -120.119959 305 5394ft 103kts
20-Sep-17 10:03 34.693989 -120.150513 305 5167ft 103kts
20-Sep-17 10:04 34.708731 -120.181124 309 4892ft 105kts
20-Sep-17 10:05 34.723976 -120.212007 307 4628ft 105kts
20-Sep-17 10:06 34.738116 -120.242966 305 4604ft 104kts
20-Sep-17 10:07 34.752140 -120.273605 305 4587ft 103kts
20-Sep-17 10:08 34.769676 -120.300935 323 4382ft 106kts
20-Sep-17 10:09 34.792266 -120.324083 320 4117ft 108kts
20-Sep-17 10:10 34.813267 -120.350242 322 3757ft 104kts
20-Sep-17 10:11 34.835398 -120.374497 321 3205ft 109kts
20-Sep-17 10:12 34.853871 -120.399525 317 2747ft 91kts
20-Sep-17 10:13 34.871571 -120.420648 310 2099ft 89kts
20-Sep-17 10:14 34.883566 -120.444460 260 1450ft 94kts
20-Sep-17 10:15 34.890923 -120.442591 291 404ft 60kts
20-Sep-17 10:16 34.896247 -120.449852 332 264ft 20kts
20-Sep-17 10:17 34.896990 -120.450034 358 264ft 0kts
20-Sep-17 10:18 34.897284 -120.449145 136 264ft 9kts
20-Sep-17 10:19 34.897383 -120.446612 324 264ft 4kts
20-Sep-17 10:20 34.897401 -120.446633 311 264ft 0kts
20-Sep-17 10:21 34.897401 -120.446633 311 264ft 0kts
20-Sep-17 10:22 34.897401 -120.446633 311 264ft 0kts

Navigation Log

Ident Type
1. KSMO Airport
2. SADDE Fix
3. VTU Navaid
4. DEANO Fix
5. ZIQOR Fix
6. RZS Navaid
7. KSMX Airport